createdAt,value
2022-12-19T00:01:58.256Z,100750.34
2022-12-19T00:04:26.004Z,100751.81
2022-12-19T00:06:53.662Z,100753.84
2022-12-19T00:09:21.235Z,100750.00
2022-12-19T00:11:49.321Z,100743.34
2022-12-19T00:14:18.361Z,100743.75
2022-12-19T00:16:46.070Z,100747.91
2022-12-19T00:19:14.090Z,100737.94
2022-12-19T00:21:41.691Z,100743.47
2022-12-19T00:24:21.635Z,100736.97
2022-12-19T00:26:50.532Z,100733.31
2022-12-19T00:29:19.457Z,100738.78
2022-12-19T00:31:47.233Z,100727.09
2022-12-19T00:34:15.145Z,100722.59
2022-12-19T00:36:42.906Z,100720.66
2022-12-19T00:39:11.614Z,100722.41
2022-12-19T00:41:41.893Z,100724.06
2022-12-19T00:44:12.313Z,100715.69
2022-12-19T00:46:41.274Z,100715.56
2022-12-19T00:49:09.078Z,100717.50
2022-12-19T00:51:38.244Z,100716.88
2022-12-19T00:54:07.271Z,100708.06
2022-12-19T00:56:38.502Z,100715.13
2022-12-19T00:59:06.755Z,100699.50
2022-12-19T01:01:36.340Z,100701.31
2022-12-19T01:07:02.117Z,100704.34
2022-12-19T01:09:30.605Z,100701.22
2022-12-19T01:12:16.169Z,100699.25
2022-12-19T01:14:43.750Z,100701.13
2022-12-19T01:17:11.479Z,100695.97
2022-12-19T01:19:44.384Z,100699.16
2022-12-19T01:22:12.924Z,100691.47
2022-12-19T01:24:40.630Z,100688.88
2022-12-19T01:27:08.332Z,100691.06
2022-12-19T01:29:37.612Z,100698.56
2022-12-19T01:32:20.509Z,100691.97
2022-12-19T01:34:49.427Z,100690.78
2022-12-19T01:37:20.583Z,100689.16
2022-12-19T01:39:48.183Z,100687.44
2022-12-19T01:42:17.712Z,100688.34
2022-12-19T01:45:17.464Z,100688.63
2022-12-19T01:47:51.230Z,100683.91
2022-12-19T01:50:27.906Z,100679.00
2022-12-19T01:52:56.332Z,100678.09
2022-12-19T01:55:24.041Z,100686.31
2022-12-19T01:57:52.295Z,100681.13
2022-12-19T02:00:19.889Z,100688.31
2022-12-19T02:02:54.593Z,100687.88
2022-12-19T02:05:23.758Z,100677.53
2022-12-19T02:07:53.107Z,100685.72
2022-12-19T02:10:20.869Z,100680.78
2022-12-19T02:12:48.539Z,100679.88
2022-12-19T02:15:18.064Z,100669.84
2022-12-19T02:18:02.115Z,100663.31
2022-12-19T02:20:59.271Z,100666.03
2022-12-19T02:23:55.070Z,100670.88
2022-12-19T02:26:53.264Z,100660.94
2022-12-19T02:29:32.347Z,100662.41
2022-12-19T02:32:08.317Z,100658.41
2022-12-19T02:34:44.727Z,100661.03
2022-12-19T02:37:18.702Z,100657.75
2022-12-19T02:39:52.526Z,100653.66
2022-12-19T02:42:26.130Z,100652.69
2022-12-19T02:44:55.909Z,100656.91
2022-12-19T02:47:25.661Z,100646.81
2022-12-19T02:49:53.229Z,100660.03
2022-12-19T02:52:45.255Z,100661.50
2022-12-19T02:55:17.341Z,100655.69
2022-12-19T02:58:20.073Z,100651.69
2022-12-19T03:00:55.776Z,100656.25
2022-12-19T03:03:32.239Z,100655.91
2022-12-19T03:06:10.168Z,100647.09
2022-12-19T03:08:44.335Z,100649.91
2022-12-19T03:11:14.752Z,100641.72
2022-12-19T03:13:47.164Z,100643.41
2022-12-19T03:16:16.030Z,100651.09
2022-12-19T03:18:45.395Z,100649.97
2022-12-19T03:21:20.547Z,100651.03
2022-12-19T03:23:50.574Z,100655.38
2022-12-19T03:26:21.471Z,100648.31
2022-12-19T03:28:53.665Z,100657.88
2022-12-19T03:31:25.632Z,100659.19
2022-12-19T03:33:58.132Z,100656.03
2022-12-19T03:36:31.407Z,100653.13
2022-12-19T03:39:02.851Z,100657.88
2022-12-19T03:41:49.140Z,100647.88
2022-12-19T03:44:18.131Z,100661.63
2022-12-19T03:46:50.758Z,100659.03
2022-12-19T03:49:19.755Z,100654.88
2022-12-19T03:51:59.196Z,100658.34
2022-12-19T03:54:30.420Z,100650.81
2022-12-19T03:57:06.989Z,100657.28
2022-12-19T03:59:37.526Z,100653.59
2022-12-19T04:02:06.134Z,100652.13
2022-12-19T04:04:42.767Z,100649.28
2022-12-19T04:07:13.046Z,100663.81
2022-12-19T04:09:43.305Z,100652.44
2022-12-19T04:12:18.276Z,100650.13
2022-12-19T04:14:46.700Z,100654.75
2022-12-19T04:17:21.607Z,100648.44
2022-12-19T04:19:55.934Z,100646.00
2022-12-19T04:22:27.018Z,100648.91
2022-12-19T04:24:56.055Z,100648.47
2022-12-19T04:27:24.137Z,100644.66
2022-12-19T04:29:56.700Z,100634.78
2022-12-19T04:32:26.427Z,100625.97
2022-12-19T04:34:55.370Z,100630.28
2022-12-19T04:37:22.947Z,100625.16
2022-12-19T04:39:50.559Z,100618.72
2022-12-19T04:42:18.160Z,100622.00
2022-12-19T04:44:45.794Z,100607.41
2022-12-19T04:47:13.459Z,100604.81
2022-12-19T04:49:41.036Z,100609.03
2022-12-19T04:52:09.960Z,100611.00
2022-12-19T04:54:37.539Z,100606.53
2022-12-19T04:57:05.321Z,100605.44
2022-12-19T04:59:32.923Z,100595.88
2022-12-19T05:02:00.594Z,100605.28
2022-12-19T05:04:28.484Z,100603.94
2022-12-19T05:06:56.045Z,100612.31
2022-12-19T05:09:24.979Z,100602.56
2022-12-19T05:11:52.507Z,100592.34
2022-12-19T05:14:20.051Z,100585.28
2022-12-19T05:16:49.372Z,100588.50
2022-12-19T05:19:16.923Z,100597.69
2022-12-19T05:21:45.390Z,100603.06
2022-12-19T05:24:12.991Z,100601.06
2022-12-19T05:26:42.215Z,100605.63
2022-12-19T05:29:09.774Z,100583.81
2022-12-19T05:31:37.441Z,100589.22
2022-12-19T05:34:05.054Z,100590.91
2022-12-19T05:36:32.919Z,100601.00
2022-12-19T05:39:00.533Z,100598.91
2022-12-19T05:41:28.207Z,100604.00
2022-12-19T05:43:57.423Z,100602.41
2022-12-19T05:46:25.768Z,100607.31
2022-12-19T05:48:53.856Z,100604.13
2022-12-19T05:51:22.033Z,100600.28
2022-12-19T05:53:49.702Z,100596.94
2022-12-19T05:56:19.590Z,100596.09
2022-12-19T05:58:47.898Z,100601.78
2022-12-19T06:01:20.729Z,100587.97
2022-12-19T06:03:48.672Z,100587.34
2022-12-19T06:06:18.445Z,100574.66
2022-12-19T06:08:46.214Z,100576.03
2022-12-19T06:11:15.493Z,100582.97
2022-12-19T06:13:43.119Z,100577.31
2022-12-19T06:16:13.788Z,100593.91
2022-12-19T06:18:45.166Z,100593.72
2022-12-19T06:21:14.886Z,100597.94
2022-12-19T06:23:43.135Z,100590.97
2022-12-19T06:26:18.689Z,100593.91
2022-12-19T06:28:47.091Z,100588.34
2022-12-19T06:31:15.705Z,100582.47
2022-12-19T06:33:44.937Z,100583.66
2022-12-19T06:36:16.897Z,100589.38
2022-12-19T06:38:44.568Z,100581.81
2022-12-19T06:41:34.165Z,100585.34
2022-12-19T06:44:02.677Z,100582.66
2022-12-19T06:46:31.434Z,100582.50
2022-12-19T06:49:00.397Z,100588.63
2022-12-19T06:51:28.068Z,100585.63
2022-12-19T06:53:55.796Z,100580.06
2022-12-19T06:56:24.189Z,100590.16
2022-12-19T06:58:52.139Z,100585.19
2022-12-19T07:01:20.665Z,100583.00
2022-12-19T07:03:49.688Z,100571.00
2022-12-19T07:06:18.726Z,100572.00
2022-12-19T07:08:46.540Z,100573.59
2022-12-19T07:11:14.113Z,100576.50
2022-12-19T07:13:41.772Z,100592.72
2022-12-19T07:16:09.657Z,100580.63
2022-12-19T07:18:40.722Z,100576.28
2022-12-19T07:21:11.216Z,100572.38
2022-12-19T07:23:41.706Z,100576.94
2022-12-19T07:26:09.447Z,100583.00
2022-12-19T07:28:38.614Z,100593.91
2022-12-19T07:31:06.520Z,100583.00
2022-12-19T07:33:34.092Z,100585.03
2022-12-19T07:36:01.748Z,100585.88
2022-12-19T07:38:29.389Z,100601.06
2022-12-19T07:41:01.933Z,100585.88
2022-12-19T07:43:29.713Z,100590.91
2022-12-19T07:45:57.937Z,100588.06
2022-12-19T07:48:25.626Z,100583.84
2022-12-19T07:50:53.227Z,100589.63
2022-12-19T07:53:20.860Z,100587.22
2022-12-19T07:58:44.773Z,100593.00
2022-12-19T08:01:13.180Z,100591.31
2022-12-19T08:03:40.926Z,100593.41
2022-12-19T08:06:10.434Z,100595.94
2022-12-19T08:08:38.495Z,100595.28
2022-12-19T08:11:17.090Z,100589.66
2022-12-19T08:13:47.147Z,100584.03
2022-12-19T08:16:15.014Z,100590.56
2022-12-19T08:18:42.896Z,100594.88
2022-12-19T08:21:10.519Z,100590.00
2022-12-19T08:23:38.587Z,100595.03
2022-12-19T08:26:07.919Z,100594.00
2022-12-19T08:28:36.971Z,100595.44
2022-12-19T08:31:10.232Z,100589.91
2022-12-19T08:33:38.321Z,100586.38
2022-12-19T08:36:06.629Z,100580.78
2022-12-19T08:38:34.290Z,100574.00
2022-12-19T08:41:02.115Z,100586.59
2022-12-19T08:43:30.398Z,100594.66
2022-12-19T08:45:58.308Z,100581.53
2022-12-19T08:48:28.168Z,100582.09
2022-12-19T08:50:57.386Z,100576.53
2022-12-19T08:53:26.824Z,100571.81
2022-12-19T08:55:56.179Z,100567.16
2022-12-19T08:58:23.935Z,100566.53
2022-12-19T09:00:57.556Z,100570.41
2022-12-19T09:03:33.362Z,100566.78
2022-12-19T09:06:19.110Z,100560.75
2022-12-19T09:08:47.159Z,100564.91
2022-12-19T09:11:16.542Z,100564.72
2022-12-19T09:13:45.656Z,100557.28
2022-12-19T09:16:15.791Z,100559.13
2022-12-19T09:18:48.650Z,100563.16
2022-12-19T09:21:17.462Z,100558.09
2022-12-19T09:23:48.897Z,100561.81
2022-12-19T09:26:18.113Z,100559.13
2022-12-19T09:28:47.483Z,100568.72
2022-12-19T09:31:19.755Z,100567.66
2022-12-19T09:33:48.991Z,100552.88
2022-12-19T09:36:18.950Z,100553.59
2022-12-19T09:38:47.089Z,100558.66
2022-12-19T09:41:34.875Z,100549.81
2022-12-19T09:44:11.771Z,100544.88
2022-12-19T09:46:49.024Z,100546.84
2022-12-19T09:49:23.409Z,100543.31
2022-12-19T09:51:59.681Z,100536.50
2022-12-19T09:54:34.995Z,100543.31
2022-12-19T09:57:11.996Z,100532.50
2022-12-19T09:59:49.655Z,100544.78
2022-12-19T10:02:41.765Z,100536.78
2022-12-19T10:06:04.619Z,100537.88
2022-12-19T10:08:17.460Z,100541.97
2022-12-19T10:12:37.496Z,100518.91
2022-12-19T10:14:06.023Z,100515.22
2022-12-19T10:16:52.021Z,100516.53
2022-12-19T10:19:43.551Z,100519.00
2022-12-19T10:22:23.586Z,100515.88
2022-12-19T10:25:09.413Z,100518.16
2022-12-19T10:27:59.825Z,100520.38
2022-12-19T10:30:31.738Z,100511.19
2022-12-19T10:33:11.656Z,100503.41
2022-12-19T10:35:49.261Z,100503.97
2022-12-19T10:38:25.313Z,100507.84
2022-12-19T10:40:56.361Z,100503.78
2022-12-19T10:43:35.678Z,100485.31
2022-12-19T10:46:14.702Z,100490.88
2022-12-19T10:48:42.371Z,100495.97
2022-12-19T10:51:14.566Z,100502.25
2022-12-19T10:53:54.344Z,100494.75
2022-12-19T10:56:30.350Z,100488.72
2022-12-19T10:59:02.333Z,100484.19
2022-12-19T11:01:34.347Z,100485.75
2022-12-19T11:04:31.900Z,100472.28
2022-12-19T11:07:18.339Z,100474.91
2022-12-19T11:09:54.035Z,100468.00
2022-12-19T11:16:45.531Z,100472.72
2022-12-19T11:17:48.662Z,100475.56
2022-12-19T11:26:19.220Z,100458.72
2022-12-19T11:29:39.244Z,100451.78
2022-12-19T11:30:42.987Z,100449.69
2022-12-19T11:30:46.428Z,100444.03
2022-12-19T11:32:41.081Z,100439.47
2022-12-19T11:35:18.598Z,100448.16
2022-12-19T11:37:55.388Z,100445.34
2022-12-19T11:40:32.534Z,100433.38
2022-12-19T11:46:03.869Z,100426.72
2022-12-19T11:48:39.673Z,100422.63
2022-12-19T11:51:15.948Z,100420.78
2022-12-19T11:53:50.388Z,100423.91
2022-12-19T11:56:21.637Z,100416.81
2022-12-19T11:58:54.312Z,100417.59
2022-12-19T12:01:39.042Z,100411.25
2022-12-19T12:04:29.461Z,100401.91
2022-12-19T12:06:58.473Z,100399.59
2022-12-19T12:14:08.499Z,100403.09
2022-12-19T12:19:19.681Z,100408.81
2022-12-19T12:24:54.428Z,100399.72
2022-12-19T12:31:22.520Z,100402.75
2022-12-19T12:31:31.016Z,100400.47
2022-12-19T12:31:39.253Z,100406.44
2022-12-19T12:31:42.403Z,100402.56
2022-12-19T12:31:52.922Z,100402.06
2022-12-19T12:35:17.510Z,100404.09
2022-12-19T12:39:34.125Z,100413.44
2022-12-19T12:42:16.206Z,100410.81
2022-12-19T12:44:46.316Z,100398.78
2022-12-19T12:47:20.452Z,100394.78
2022-12-19T12:49:51.965Z,100407.69
2022-12-19T12:52:26.170Z,100402.34
2022-12-19T12:54:56.468Z,100391.69
2022-12-19T12:57:36.396Z,100395.53
2022-12-19T13:00:17.263Z,100388.97
2022-12-19T13:02:51.184Z,100391.28
2022-12-19T13:05:40.857Z,100392.53
2022-12-19T13:08:36.896Z,100388.03
2022-12-19T13:11:06.933Z,100388.97
2022-12-19T13:13:50.410Z,100385.84
2022-12-19T13:16:52.871Z,100391.69
2022-12-19T13:19:28.360Z,100391.41
2022-12-19T13:22:20.087Z,100402.31
2022-12-19T13:24:51.035Z,100400.13
2022-12-19T13:27:38.723Z,100394.06
2022-12-19T13:30:20.416Z,100392.28
2022-12-19T13:33:09.930Z,100389.06
2022-12-19T13:37:31.323Z,100387.06
2022-12-19T13:39:59.352Z,100392.59
2022-12-19T13:41:46.301Z,100388.81
2022-12-19T13:44:14.269Z,100393.78
2022-12-19T13:46:43.696Z,100393.13
2022-12-19T13:49:16.199Z,100390.84
2022-12-19T13:51:49.556Z,100385.19
2022-12-19T13:54:23.751Z,100380.56
2022-12-19T13:56:51.897Z,100378.47
2022-12-19T13:59:21.217Z,100382.56
2022-12-19T14:01:51.503Z,100379.22
2022-12-19T14:04:28.304Z,100386.44
2022-12-19T14:07:01.192Z,100393.38
2022-12-19T14:11:28.398Z,100390.38
2022-12-19T14:13:42.524Z,100388.13
2022-12-19T14:15:52.208Z,100384.31
2022-12-19T14:18:42.345Z,100380.78
2022-12-19T14:22:05.376Z,100381.47
2022-12-19T14:24:17.016Z,100384.25
2022-12-19T14:28:24.645Z,100381.81
2022-12-19T14:30:14.846Z,100382.97
2022-12-19T14:33:40.975Z,100381.38
2022-12-19T14:36:07.057Z,100367.88
2022-12-19T14:39:18.330Z,100370.66
2022-12-19T14:41:08.212Z,100375.06
2022-12-19T14:43:59.245Z,100376.00
2022-12-19T14:54:10.121Z,100366.56
2022-12-19T14:54:14.922Z,100375.91
2022-12-19T14:54:37.232Z,100372.84
2022-12-19T14:56:04.723Z,100371.19
2022-12-19T14:58:56.153Z,100365.94
2022-12-19T15:01:25.759Z,100362.94
2022-12-19T15:04:51.140Z,100366.28
2022-12-19T15:07:08.790Z,100371.38
2022-12-19T15:11:08.672Z,100364.50
2022-12-19T15:14:49.251Z,100366.38
2022-12-19T15:15:48.138Z,100371.88
2022-12-19T15:18:22.639Z,100364.09
2022-12-19T15:20:50.374Z,100368.16
2022-12-19T15:23:21.935Z,100364.09
2022-12-19T15:26:07.901Z,100353.63
2022-12-19T15:28:41.130Z,100360.53
2022-12-19T15:31:25.031Z,100355.50
2022-12-19T15:36:40.342Z,100361.66
2022-12-19T15:39:07.992Z,100361.13
2022-12-19T15:41:36.437Z,100364.13
2022-12-19T15:44:10.371Z,100358.94
2022-12-19T15:46:46.432Z,100358.63
2022-12-19T15:49:17.814Z,100366.97
2022-12-19T15:51:45.731Z,100351.03
2022-12-19T15:57:01.301Z,100364.78
2022-12-19T15:59:37.596Z,100358.94
2022-12-19T16:02:16.975Z,100348.59
2022-12-19T16:04:45.545Z,100342.44
2022-12-19T16:07:16.193Z,100343.69
2022-12-19T16:09:43.798Z,100346.00
2022-12-19T16:12:15.340Z,100350.50
2022-12-19T16:14:43.195Z,100344.63
2022-12-19T16:17:15.960Z,100342.50
2022-12-19T16:19:43.572Z,100340.72
2022-12-19T16:22:18.797Z,100337.47
2022-12-19T16:24:46.425Z,100340.13
2022-12-19T16:27:21.471Z,100335.88
2022-12-19T16:29:49.226Z,100324.91
2022-12-19T16:32:19.179Z,100331.06
2022-12-19T16:34:47.125Z,100332.97
2022-12-19T16:37:15.335Z,100343.06
2022-12-19T16:39:43.123Z,100339.31
2022-12-19T16:42:16.279Z,100340.66
2022-12-19T16:44:46.091Z,100330.78
2022-12-19T16:47:15.264Z,100331.41
2022-12-19T16:49:44.634Z,100334.75
2022-12-19T16:52:12.629Z,100327.97
2022-12-19T16:54:40.735Z,100326.81
2022-12-19T16:57:19.572Z,100324.19
2022-12-19T16:59:47.309Z,100321.72
2022-12-19T17:02:36.804Z,100322.34
2022-12-19T17:05:07.796Z,100319.97
2022-12-19T17:07:36.182Z,100319.72
2022-12-19T17:10:03.809Z,100315.53
2022-12-19T17:12:31.459Z,100318.69
2022-12-19T17:14:59.814Z,100315.16
2022-12-19T17:17:27.609Z,100321.59
2022-12-19T17:19:55.212Z,100310.09
2022-12-19T17:22:24.220Z,100312.31
2022-12-19T17:24:51.855Z,100299.59
2022-12-19T17:27:20.897Z,100296.00
2022-12-19T17:29:48.504Z,100303.28
2022-12-19T17:32:23.703Z,100295.88
2022-12-19T17:34:53.122Z,100300.59
2022-12-19T17:37:20.872Z,100302.69
2022-12-19T17:39:49.758Z,100301.31
2022-12-19T17:42:22.518Z,100305.94
2022-12-19T17:44:50.134Z,100303.84
2022-12-19T17:47:19.924Z,100299.75
2022-12-19T17:49:48.134Z,100296.56
2022-12-19T17:52:17.743Z,100299.22
2022-12-19T17:54:45.376Z,100301.84
2022-12-19T17:57:15.849Z,100291.34
2022-12-19T17:59:43.471Z,100308.03
2022-12-19T18:02:20.751Z,100306.56
2022-12-19T18:04:48.721Z,100310.97
2022-12-19T18:07:17.621Z,100302.00
2022-12-19T18:09:45.426Z,100289.59
2022-12-19T18:12:14.084Z,100298.97
2022-12-19T18:14:43.112Z,100308.66
2022-12-19T18:17:13.238Z,100298.53
2022-12-19T18:19:41.018Z,100297.69
2022-12-19T18:22:13.129Z,100297.34
2022-12-19T18:24:40.895Z,100302.44
2022-12-19T18:27:08.650Z,100304.72
2022-12-19T18:29:36.378Z,100302.41
2022-12-19T18:32:05.572Z,100294.88
2022-12-19T18:34:35.651Z,100297.50
2022-12-19T18:37:05.291Z,100301.13
2022-12-19T18:39:34.105Z,100326.16
2022-12-19T18:42:01.763Z,100309.19
2022-12-19T18:44:29.435Z,100312.06
2022-12-19T18:46:57.063Z,100309.53
2022-12-19T18:49:25.993Z,100307.53
2022-12-19T18:51:53.552Z,100301.41
2022-12-19T18:54:23.087Z,100302.75
2022-12-19T18:56:51.786Z,100287.41
2022-12-19T18:59:20.026Z,100284.03
2022-12-19T19:01:48.054Z,100285.16
2022-12-19T19:04:17.897Z,100279.94
2022-12-19T19:06:52.318Z,100272.97
2022-12-19T19:09:21.386Z,100281.81
2022-12-19T19:11:49.324Z,100287.03
2022-12-19T19:14:16.987Z,100285.63
2022-12-19T19:16:44.672Z,100290.22
2022-12-19T19:19:17.545Z,100295.69
2022-12-19T19:21:47.871Z,100294.94
2022-12-19T19:24:18.378Z,100291.19
2022-12-19T19:26:46.166Z,100287.91
2022-12-19T19:29:14.999Z,100288.25
2022-12-19T19:31:46.781Z,100277.03
2022-12-19T19:34:22.700Z,100287.78
2022-12-19T19:36:55.892Z,100291.69
2022-12-19T19:39:24.855Z,100294.72
2022-12-19T19:41:53.717Z,100291.25
2022-12-19T19:44:21.594Z,100292.91
2022-12-19T19:46:49.504Z,100289.31
2022-12-19T19:49:17.401Z,100291.75
2022-12-19T19:51:45.265Z,100286.81
2022-12-19T19:54:14.538Z,100282.53
2022-12-19T19:56:42.310Z,100280.00
2022-12-19T19:59:10.203Z,100278.56
2022-12-19T20:01:38.085Z,100282.75
2022-12-19T20:04:06.112Z,100277.78
2022-12-19T20:06:33.959Z,100268.25
2022-12-19T20:09:01.725Z,100273.78
2022-12-19T20:11:31.008Z,100268.25
2022-12-19T20:13:58.860Z,100265.22
2022-12-19T20:16:26.861Z,100274.19
2022-12-19T20:18:54.810Z,100269.22
2022-12-19T20:21:24.021Z,100272.25
2022-12-19T20:23:52.269Z,100273.94
2022-12-19T20:26:20.244Z,100269.56
2022-12-19T20:28:51.598Z,100267.50
2022-12-19T20:31:20.160Z,100276.06
2022-12-19T20:33:49.127Z,100271.84
2022-12-19T20:36:17.939Z,100276.25
2022-12-19T20:38:46.190Z,100284.72
2022-12-19T20:41:14.139Z,100284.13
2022-12-19T20:43:42.012Z,100287.03
2022-12-19T20:46:13.126Z,100292.19
2022-12-19T20:48:42.056Z,100283.06
2022-12-19T20:51:10.986Z,100282.53
2022-12-19T20:53:39.921Z,100280.97
2022-12-19T20:56:09.135Z,100279.19
2022-12-19T20:58:38.116Z,100274.47
2022-12-19T21:01:07.858Z,100290.88
2022-12-19T21:03:38.073Z,100281.81
2022-12-19T21:06:06.641Z,100291.66
2022-12-19T21:08:35.047Z,100296.63
2022-12-19T21:11:04.354Z,100308.72
2022-12-19T21:13:32.206Z,100299.13
2022-12-19T21:16:03.117Z,100301.34
2022-12-19T21:18:31.324Z,100298.09
2022-12-19T21:21:00.880Z,100290.78
2022-12-19T21:23:29.356Z,100290.69
2022-12-19T21:25:59.298Z,100293.63
2022-12-19T21:28:27.562Z,100289.94
2022-12-19T21:31:00.042Z,100285.19
2022-12-19T21:33:27.913Z,100292.66
2022-12-19T21:35:56.099Z,100296.00
2022-12-19T21:38:25.391Z,100296.19
2022-12-19T21:40:53.073Z,100311.38
2022-12-19T21:43:20.632Z,100314.53
2022-12-19T21:45:48.244Z,100298.66
2022-12-19T21:48:15.799Z,100300.47
2022-12-19T21:50:43.314Z,100311.91
2022-12-19T21:53:10.909Z,100306.06
2022-12-19T21:55:39.874Z,100321.00
2022-12-19T21:58:07.427Z,100315.88
2022-12-19T22:00:35.021Z,100322.56
2022-12-19T22:03:13.777Z,100321.09
2022-12-19T22:05:42.332Z,100326.66
2022-12-19T22:08:10.401Z,100323.28
2022-12-19T22:10:40.559Z,100322.34
2022-12-19T22:13:08.169Z,100324.78
2022-12-19T22:15:36.663Z,100322.03
2022-12-19T22:18:04.620Z,100306.38
2022-12-19T22:20:32.170Z,100301.28
2022-12-19T22:22:59.827Z,100302.81
2022-12-19T22:25:27.473Z,100306.19
2022-12-19T22:27:57.558Z,100307.47
2022-12-19T22:30:25.259Z,100317.47
2022-12-19T22:32:53.192Z,100318.50
2022-12-19T22:35:20.825Z,100307.72
2022-12-19T22:37:48.500Z,100310.47
2022-12-19T22:40:16.487Z,100306.19
2022-12-19T22:42:44.155Z,100307.53
2022-12-19T22:45:13.307Z,100307.13
2022-12-19T22:47:42.264Z,100305.03
2022-12-19T22:50:11.415Z,100298.25
2022-12-19T22:52:39.708Z,100293.53
2022-12-19T22:55:08.300Z,100300.03
2022-12-19T22:57:35.889Z,100294.47
2022-12-19T23:00:05.275Z,100293.22
2022-12-19T23:02:34.300Z,100284.44
2022-12-19T23:05:01.969Z,100293.03
2022-12-19T23:07:29.702Z,100287.66
2022-12-19T23:09:57.297Z,100288.81
2022-12-19T23:12:25.212Z,100282.34
2022-12-19T23:14:52.829Z,100290.78
2022-12-19T23:17:20.433Z,100295.84
2022-12-19T23:19:49.351Z,100291.94
2022-12-19T23:22:16.943Z,100285.91
2022-12-19T23:24:45.820Z,100274.41
2022-12-19T23:27:13.538Z,100270.31
2022-12-19T23:29:43.536Z,100269.94
2022-12-19T23:32:11.271Z,100263.44
2022-12-19T23:34:38.924Z,100277.13
2022-12-19T23:37:11.182Z,100277.03
2022-12-19T23:39:39.387Z,100279.00
2022-12-19T23:42:07.107Z,100273.56
2022-12-19T23:44:34.879Z,100271.47
2022-12-19T23:47:03.772Z,100264.47
2022-12-19T23:49:32.443Z,100262.84
2022-12-19T23:52:00.142Z,100260.81
2022-12-19T23:54:29.153Z,100254.41
2022-12-19T23:56:56.717Z,100252.81
2022-12-19T23:59:24.315Z,100260.13
